sensor_id;sensor_type;location;lat;lon;timestamp;P1;durP1;ratioP1;P2;durP2;ratioP2
8568;SDS011;4322;51.104;-4.162;2022-10-15T00:01:08;5.57;;;5.37;;
8568;SDS011;4322;51.104;-4.162;2022-10-15T00:03:37;6.00;;;5.70;;
8568;SDS011;4322;51.104;-4.162;2022-10-15T00:06:07;5.57;;;5.37;;
8568;SDS011;4322;51.104;-4.162;2022-10-15T00:08:36;4.87;;;4.67;;
8568;SDS011;4322;51.104;-4.162;2022-10-15T00:11:06;5.33;;;5.13;;
8568;SDS011;4322;51.104;-4.162;2022-10-15T00:13:36;5.07;;;4.87;;
8568;SDS011;4322;51.104;-4.162;2022-10-15T00:16:05;5.00;;;4.80;;
8568;SDS011;4322;51.104;-4.162;2022-10-15T00:18:37;5.83;;;5.57;;
8568;SDS011;4322;51.104;-4.162;2022-10-15T00:21:05;5.43;;;5.23;;
8568;SDS011;4322;51.104;-4.162;2022-10-15T00:23:34;4.50;;;4.30;;
8568;SDS011;4322;51.104;-4.162;2022-10-15T00:26:03;4.17;;;3.97;;
8568;SDS011;4322;51.104;-4.162;2022-10-15T00:28:32;4.13;;;3.93;;
8568;SDS011;4322;51.104;-4.162;2022-10-15T00:31:04;12.33;;;11.73;;
8568;SDS011;4322;51.104;-4.162;2022-10-15T00:33:36;13.93;;;13.23;;
8568;SDS011;4322;51.104;-4.162;2022-10-15T00:36:06;14.90;;;14.20;;
8568;SDS011;4322;51.104;-4.162;2022-10-15T00:38:36;12.53;;;11.93;;
8568;SDS011;4322;51.104;-4.162;2022-10-15T00:41:04;15.70;;;14.90;;
8568;SDS011;4322;51.104;-4.162;2022-10-15T00:43:35;18.70;;;17.80;;
8568;SDS011;4322;51.104;-4.162;2022-10-15T00:46:04;21.37;;;20.27;;
8568;SDS011;4322;51.104;-4.162;2022-10-15T00:48:33;16.57;;;15.77;;
8568;SDS011;4322;51.104;-4.162;2022-10-15T00:51:03;16.60;;;15.80;;
8568;SDS011;4322;51.104;-4.162;2022-10-15T00:53:31;15.77;;;14.97;;
8568;SDS011;4322;51.104;-4.162;2022-10-15T00:55:59;16.80;;;16.00;;
8568;SDS011;4322;51.104;-4.162;2022-10-15T00:58:29;18.77;;;17.83;;
8568;SDS011;4322;51.104;-4.162;2022-10-15T01:00:59;16.77;;;15.97;;
8568;SDS011;4322;51.104;-4.162;2022-10-15T01:03:27;18.67;;;17.77;;
8568;SDS011;4322;51.104;-4.162;2022-10-15T01:05:56;20.27;;;19.27;;
8568;SDS011;4322;51.104;-4.162;2022-10-15T01:08:24;13.87;;;13.17;;
8568;SDS011;4322;51.104;-4.162;2022-10-15T01:10:54;21.40;;;20.30;;
8568;SDS011;4322;51.104;-4.162;2022-10-15T01:13:33;13.90;;;13.20;;
8568;SDS011;4322;51.104;-4.162;2022-10-15T01:16:07;12.77;;;12.17;;
8568;SDS011;4322;51.104;-4.162;2022-10-15T01:18:44;12.10;;;11.50;;
8568;SDS011;4322;51.104;-4.162;2022-10-15T01:21:17;12.40;;;11.80;;
8568;SDS011;4322;51.104;-4.162;2022-10-15T01:24:08;11.40;;;10.87;;
8568;SDS011;4322;51.104;-4.162;2022-10-15T01:26:58;10.93;;;10.43;;
8568;SDS011;4322;51.104;-4.162;2022-10-15T01:29:54;12.60;;;12.00;;
8568;SDS011;4322;51.104;-4.162;2022-10-15T01:32:33;10.80;;;10.30;;
8568;SDS011;4322;51.104;-4.162;2022-10-15T01:35:07;11.87;;;11.27;;
8568;SDS011;4322;51.104;-4.162;2022-10-15T01:37:43;12.67;;;12.07;;
8568;SDS011;4322;51.104;-4.162;2022-10-15T01:40:18;12.63;;;12.03;;
8568;SDS011;4322;51.104;-4.162;2022-10-15T01:42:50;13.30;;;12.70;;
8568;SDS011;4322;51.104;-4.162;2022-10-15T01:45:24;13.97;;;13.27;;
8568;SDS011;4322;51.104;-4.162;2022-10-15T01:47:58;12.03;;;11.43;;
8568;SDS011;4322;51.104;-4.162;2022-10-15T01:50:30;11.63;;;11.07;;
8568;SDS011;4322;51.104;-4.162;2022-10-15T01:53:01;10.70;;;10.20;;
8568;SDS011;4322;51.104;-4.162;2022-10-15T01:55:32;11.60;;;11.00;;
8568;SDS011;4322;51.104;-4.162;2022-10-15T01:58:03;12.23;;;11.63;;
8568;SDS011;4322;51.104;-4.162;2022-10-15T02:00:32;12.00;;;11.40;;
8568;SDS011;4322;51.104;-4.162;2022-10-15T02:03:01;11.90;;;11.30;;
8568;SDS011;4322;51.104;-4.162;2022-10-15T02:05:31;11.63;;;11.03;;
8568;SDS011;4322;51.104;-4.162;2022-10-15T02:08:06;11.17;;;10.67;;
8568;SDS011;4322;51.104;-4.162;2022-10-15T02:10:46;10.53;;;10.03;;
8568;SDS011;4322;51.104;-4.162;2022-10-15T02:13:22;11.93;;;11.33;;
8568;SDS011;4322;51.104;-4.162;2022-10-15T02:15:58;10.90;;;10.40;;
8568;SDS011;4322;51.104;-4.162;2022-10-15T02:18:36;11.27;;;10.77;;
8568;SDS011;4322;51.104;-4.162;2022-10-15T02:21:09;11.70;;;11.10;;
8568;SDS011;4322;51.104;-4.162;2022-10-15T02:23:43;13.07;;;12.47;;
8568;SDS011;4322;51.104;-4.162;2022-10-15T02:26:13;11.80;;;11.20;;
8568;SDS011;4322;51.104;-4.162;2022-10-15T02:28:44;11.40;;;10.90;;
8568;SDS011;4322;51.104;-4.162;2022-10-15T02:31:16;11.60;;;11.00;;
8568;SDS011;4322;51.104;-4.162;2022-10-15T02:33:48;10.87;;;10.37;;
8568;SDS011;4322;51.104;-4.162;2022-10-15T02:36:18;9.77;;;9.27;;
8568;SDS011;4322;51.104;-4.162;2022-10-15T02:38:46;10.63;;;10.13;;
8568;SDS011;4322;51.104;-4.162;2022-10-15T02:41:16;9.90;;;9.40;;
8568;SDS011;4322;51.104;-4.162;2022-10-15T02:43:45;11.73;;;11.13;;
8568;SDS011;4322;51.104;-4.162;2022-10-15T02:46:13;10.60;;;10.10;;
8568;SDS011;4322;51.104;-4.162;2022-10-15T02:48:44;10.53;;;10.03;;
8568;SDS011;4322;51.104;-4.162;2022-10-15T02:51:13;10.53;;;10.03;;
8568;SDS011;4322;51.104;-4.162;2022-10-15T02:53:41;9.10;;;8.70;;
8568;SDS011;4322;51.104;-4.162;2022-10-15T02:56:09;9.30;;;8.90;;
8568;SDS011;4322;51.104;-4.162;2022-10-15T02:58:37;9.03;;;8.63;;
8568;SDS011;4322;51.104;-4.162;2022-10-15T03:01:05;8.30;;;7.90;;
8568;SDS011;4322;51.104;-4.162;2022-10-15T03:03:33;8.60;;;8.20;;
8568;SDS011;4322;51.104;-4.162;2022-10-15T03:06:00;8.20;;;7.80;;
8568;SDS011;4322;51.104;-4.162;2022-10-15T03:08:30;8.33;;;7.93;;
8568;SDS011;4322;51.104;-4.162;2022-10-15T03:10:58;8.00;;;7.60;;
8568;SDS011;4322;51.104;-4.162;2022-10-15T03:13:26;7.73;;;7.40;;
8568;SDS011;4322;51.104;-4.162;2022-10-15T03:15:54;7.20;;;6.90;;
8568;SDS011;4322;51.104;-4.162;2022-10-15T03:18:22;7.63;;;7.33;;
8568;SDS011;4322;51.104;-4.162;2022-10-15T03:20:53;7.10;;;6.80;;
8568;SDS011;4322;51.104;-4.162;2022-10-15T03:23:22;7.10;;;6.80;;
8568;SDS011;4322;51.104;-4.162;2022-10-15T03:25:51;8.00;;;7.60;;
8568;SDS011;4322;51.104;-4.162;2022-10-15T03:28:19;7.97;;;7.57;;
8568;SDS011;4322;51.104;-4.162;2022-10-15T03:30:47;6.90;;;6.60;;
8568;SDS011;4322;51.104;-4.162;2022-10-15T03:33:15;7.10;;;6.80;;
8568;SDS011;4322;51.104;-4.162;2022-10-15T03:35:47;7.40;;;7.10;;
8568;SDS011;4322;51.104;-4.162;2022-10-15T03:38:15;7.80;;;7.40;;
8568;SDS011;4322;51.104;-4.162;2022-10-15T03:40:42;6.97;;;6.67;;
8568;SDS011;4322;51.104;-4.162;2022-10-15T03:43:13;6.30;;;6.00;;
8568;SDS011;4322;51.104;-4.162;2022-10-15T03:45:41;7.67;;;7.33;;
8568;SDS011;4322;51.104;-4.162;2022-10-15T03:48:08;7.60;;;7.30;;
8568;SDS011;4322;51.104;-4.162;2022-10-15T03:50:36;7.80;;;7.40;;
8568;SDS011;4322;51.104;-4.162;2022-10-15T03:53:04;7.40;;;7.10;;
8568;SDS011;4322;51.104;-4.162;2022-10-15T03:55:32;6.50;;;6.20;;
8568;SDS011;4322;51.104;-4.162;2022-10-15T03:58:00;7.07;;;6.77;;
8568;SDS011;4322;51.104;-4.162;2022-10-15T04:00:30;7.50;;;7.20;;
8568;SDS011;4322;51.104;-4.162;2022-10-15T04:02:57;7.20;;;6.90;;
8568;SDS011;4322;51.104;-4.162;2022-10-15T04:05:26;7.27;;;6.97;;
8568;SDS011;4322;51.104;-4.162;2022-10-15T04:07:53;7.80;;;7.40;;
8568;SDS011;4322;51.104;-4.162;2022-10-15T04:10:23;7.20;;;6.90;;
8568;SDS011;4322;51.104;-4.162;2022-10-15T04:12:51;6.43;;;6.13;;
8568;SDS011;4322;51.104;-4.162;2022-10-15T04:15:19;7.37;;;7.07;;
8568;SDS011;4322;51.104;-4.162;2022-10-15T04:17:48;6.80;;;6.50;;
8568;SDS011;4322;51.104;-4.162;2022-10-15T04:20:19;7.00;;;6.70;;
8568;SDS011;4322;51.104;-4.162;2022-10-15T04:22:47;7.47;;;7.17;;
8568;SDS011;4322;51.104;-4.162;2022-10-15T04:25:15;6.33;;;6.03;;
8568;SDS011;4322;51.104;-4.162;2022-10-15T04:27:43;6.60;;;6.30;;
8568;SDS011;4322;51.104;-4.162;2022-10-15T04:30:11;6.70;;;6.40;;
8568;SDS011;4322;51.104;-4.162;2022-10-15T04:32:40;7.13;;;6.83;;
8568;SDS011;4322;51.104;-4.162;2022-10-15T04:35:09;7.50;;;7.20;;
8568;SDS011;4322;51.104;-4.162;2022-10-15T04:37:37;6.63;;;6.33;;
8568;SDS011;4322;51.104;-4.162;2022-10-15T04:40:06;6.13;;;5.83;;
8568;SDS011;4322;51.104;-4.162;2022-10-15T04:42:35;6.90;;;6.60;;
8568;SDS011;4322;51.104;-4.162;2022-10-15T04:45:03;7.13;;;6.83;;
8568;SDS011;4322;51.104;-4.162;2022-10-15T04:47:32;7.10;;;6.80;;
8568;SDS011;4322;51.104;-4.162;2022-10-15T04:49:59;6.50;;;6.20;;
8568;SDS011;4322;51.104;-4.162;2022-10-15T04:52:29;6.73;;;6.43;;
8568;SDS011;4322;51.104;-4.162;2022-10-15T04:54:57;6.30;;;6.00;;
8568;SDS011;4322;51.104;-4.162;2022-10-15T04:57:25;5.87;;;5.60;;
8568;SDS011;4322;51.104;-4.162;2022-10-15T04:59:53;5.67;;;5.47;;
8568;SDS011;4322;51.104;-4.162;2022-10-15T05:02:23;6.33;;;6.03;;
8568;SDS011;4322;51.104;-4.162;2022-10-15T05:04:51;6.17;;;5.87;;
8568;SDS011;4322;51.104;-4.162;2022-10-15T05:07:19;6.13;;;5.83;;
8568;SDS011;4322;51.104;-4.162;2022-10-15T05:09:49;5.50;;;5.30;;
8568;SDS011;4322;51.104;-4.162;2022-10-15T05:12:17;5.60;;;5.40;;
8568;SDS011;4322;51.104;-4.162;2022-10-15T05:14:45;5.50;;;5.30;;
8568;SDS011;4322;51.104;-4.162;2022-10-15T05:17:13;4.50;;;4.30;;
8568;SDS011;4322;51.104;-4.162;2022-10-15T05:19:41;5.20;;;5.00;;
8568;SDS011;4322;51.104;-4.162;2022-10-15T05:22:09;4.80;;;4.60;;
8568;SDS011;4322;51.104;-4.162;2022-10-15T05:24:37;4.90;;;4.70;;
8568;SDS011;4322;51.104;-4.162;2022-10-15T05:27:06;4.50;;;4.30;;
8568;SDS011;4322;51.104;-4.162;2022-10-15T05:29:34;4.20;;;4.00;;
8568;SDS011;4322;51.104;-4.162;2022-10-15T05:32:03;4.30;;;4.10;;
8568;SDS011;4322;51.104;-4.162;2022-10-15T05:34:31;4.10;;;3.90;;
8568;SDS011;4322;51.104;-4.162;2022-10-15T05:36:59;3.50;;;3.40;;
8568;SDS011;4322;51.104;-4.162;2022-10-15T05:39:27;4.80;;;4.60;;
8568;SDS011;4322;51.104;-4.162;2022-10-15T05:41:55;3.63;;;3.53;;
8568;SDS011;4322;51.104;-4.162;2022-10-15T05:44:24;3.70;;;3.60;;
8568;SDS011;4322;51.104;-4.162;2022-10-15T05:46:52;3.80;;;3.70;;
8568;SDS011;4322;51.104;-4.162;2022-10-15T05:49:20;4.00;;;3.87;;
8568;SDS011;4322;51.104;-4.162;2022-10-15T05:51:48;3.80;;;3.70;;
8568;SDS011;4322;51.104;-4.162;2022-10-15T05:54:16;4.40;;;4.20;;
8568;SDS011;4322;51.104;-4.162;2022-10-15T05:56:44;3.90;;;3.80;;
8568;SDS011;4322;51.104;-4.162;2022-10-15T05:59:12;3.90;;;3.77;;
8568;SDS011;4322;51.104;-4.162;2022-10-15T06:01:41;4.70;;;4.50;;
8568;SDS011;4322;51.104;-4.162;2022-10-15T06:04:09;4.03;;;3.90;;
8568;SDS011;4322;51.104;-4.162;2022-10-15T06:06:37;4.20;;;4.00;;
8568;SDS011;4322;51.104;-4.162;2022-10-15T06:09:05;4.20;;;4.00;;
8568;SDS011;4322;51.104;-4.162;2022-10-15T06:11:34;3.83;;;3.73;;
8568;SDS011;4322;51.104;-4.162;2022-10-15T06:14:02;4.40;;;4.20;;
8568;SDS011;4322;51.104;-4.162;2022-10-15T06:16:30;5.30;;;5.10;;
8568;SDS011;4322;51.104;-4.162;2022-10-15T06:19:00;4.50;;;4.30;;
8568;SDS011;4322;51.104;-4.162;2022-10-15T06:21:28;4.37;;;4.17;;
8568;SDS011;4322;51.104;-4.162;2022-10-15T06:23:56;4.43;;;4.23;;
8568;SDS011;4322;51.104;-4.162;2022-10-15T06:26:24;4.30;;;4.10;;
8568;SDS011;4322;51.104;-4.162;2022-10-15T06:28:51;4.10;;;3.90;;
8568;SDS011;4322;51.104;-4.162;2022-10-15T06:31:20;5.30;;;5.10;;
8568;SDS011;4322;51.104;-4.162;2022-10-15T06:33:48;4.87;;;4.67;;
8568;SDS011;4322;51.104;-4.162;2022-10-15T06:36:18;4.97;;;4.77;;
8568;SDS011;4322;51.104;-4.162;2022-10-15T06:38:46;5.40;;;5.20;;
8568;SDS011;4322;51.104;-4.162;2022-10-15T06:41:14;5.83;;;5.60;;
8568;SDS011;4322;51.104;-4.162;2022-10-15T06:43:43;4.97;;;4.77;;
8568;SDS011;4322;51.104;-4.162;2022-10-15T06:46:11;4.67;;;4.47;;
8568;SDS011;4322;51.104;-4.162;2022-10-15T06:48:39;5.00;;;4.80;;
8568;SDS011;4322;51.104;-4.162;2022-10-15T06:51:07;4.40;;;4.20;;
8568;SDS011;4322;51.104;-4.162;2022-10-15T06:53:36;3.93;;;3.80;;
8568;SDS011;4322;51.104;-4.162;2022-10-15T06:56:07;4.50;;;4.30;;
8568;SDS011;4322;51.104;-4.162;2022-10-15T06:58:35;4.50;;;4.30;;
8568;SDS011;4322;51.104;-4.162;2022-10-15T07:01:03;4.30;;;4.10;;
8568;SDS011;4322;51.104;-4.162;2022-10-15T07:03:32;4.20;;;4.00;;
8568;SDS011;4322;51.104;-4.162;2022-10-15T07:06:01;3.70;;;3.60;;
8568;SDS011;4322;51.104;-4.162;2022-10-15T07:08:31;2.90;;;2.80;;
8568;SDS011;4322;51.104;-4.162;2022-10-15T07:11:01;2.93;;;2.83;;
8568;SDS011;4322;51.104;-4.162;2022-10-15T07:13:30;3.97;;;3.83;;
8568;SDS011;4322;51.104;-4.162;2022-10-15T07:16:01;3.07;;;2.97;;
8568;SDS011;4322;51.104;-4.162;2022-10-15T07:18:31;3.10;;;3.00;;
8568;SDS011;4322;51.104;-4.162;2022-10-15T07:20:59;2.43;;;2.33;;
8568;SDS011;4322;51.104;-4.162;2022-10-15T07:23:30;2.77;;;2.67;;
8568;SDS011;4322;51.104;-4.162;2022-10-15T07:25:58;2.50;;;2.40;;
8568;SDS011;4322;51.104;-4.162;2022-10-15T07:28:28;2.20;;;2.13;;
8568;SDS011;4322;51.104;-4.162;2022-10-15T07:30:58;2.30;;;2.20;;
8568;SDS011;4322;51.104;-4.162;2022-10-15T07:33:27;2.30;;;2.20;;
8568;SDS011;4322;51.104;-4.162;2022-10-15T07:35:55;2.30;;;2.20;;
8568;SDS011;4322;51.104;-4.162;2022-10-15T07:38:23;2.10;;;2.10;;
8568;SDS011;4322;51.104;-4.162;2022-10-15T07:40:51;2.40;;;2.30;;
8568;SDS011;4322;51.104;-4.162;2022-10-15T07:43:19;2.30;;;2.20;;
8568;SDS011;4322;51.104;-4.162;2022-10-15T07:45:48;2.37;;;2.27;;
8568;SDS011;4322;51.104;-4.162;2022-10-15T07:48:16;1.80;;;1.80;;
8568;SDS011;4322;51.104;-4.162;2022-10-15T07:50:44;1.83;;;1.83;;
8568;SDS011;4322;51.104;-4.162;2022-10-15T07:53:12;1.90;;;1.90;;
8568;SDS011;4322;51.104;-4.162;2022-10-15T07:55:45;1.80;;;1.80;;
8568;SDS011;4322;51.104;-4.162;2022-10-15T07:58:13;1.77;;;1.77;;
8568;SDS011;4322;51.104;-4.162;2022-10-15T08:00:42;1.90;;;1.90;;
8568;SDS011;4322;51.104;-4.162;2022-10-15T08:03:11;1.80;;;1.80;;
8568;SDS011;4322;51.104;-4.162;2022-10-15T08:05:39;1.57;;;1.57;;
8568;SDS011;4322;51.104;-4.162;2022-10-15T08:08:07;1.47;;;1.47;;
8568;SDS011;4322;51.104;-4.162;2022-10-15T08:10:35;1.60;;;1.60;;
8568;SDS011;4322;51.104;-4.162;2022-10-15T08:13:03;1.50;;;1.50;;
8568;SDS011;4322;51.104;-4.162;2022-10-15T08:15:30;1.70;;;1.70;;
8568;SDS011;4322;51.104;-4.162;2022-10-15T08:17:58;1.77;;;1.77;;
8568;SDS011;4322;51.104;-4.162;2022-10-15T08:20:28;1.90;;;1.90;;
8568;SDS011;4322;51.104;-4.162;2022-10-15T08:22:56;0.60;;;0.60;;
8568;SDS011;4322;51.104;-4.162;2022-10-15T08:25:24;0.40;;;0.40;;
8568;SDS011;4322;51.104;-4.162;2022-10-15T08:27:52;0.80;;;0.80;;
8568;SDS011;4322;51.104;-4.162;2022-10-15T08:30:20;0.67;;;0.67;;
8568;SDS011;4322;51.104;-4.162;2022-10-15T08:32:48;0.63;;;0.63;;
8568;SDS011;4322;51.104;-4.162;2022-10-15T08:35:16;0.60;;;0.60;;
8568;SDS011;4322;51.104;-4.162;2022-10-15T08:37:45;0.53;;;0.53;;
8568;SDS011;4322;51.104;-4.162;2022-10-15T08:40:13;0.73;;;0.73;;
8568;SDS011;4322;51.104;-4.162;2022-10-15T08:42:42;0.93;;;0.93;;
8568;SDS011;4322;51.104;-4.162;2022-10-15T08:45:13;0.80;;;0.80;;
8568;SDS011;4322;51.104;-4.162;2022-10-15T08:47:44;0.80;;;0.80;;
8568;SDS011;4322;51.104;-4.162;2022-10-15T08:50:16;0.60;;;0.60;;
8568;SDS011;4322;51.104;-4.162;2022-10-15T08:52:53;0.60;;;0.60;;
8568;SDS011;4322;51.104;-4.162;2022-10-15T08:55:25;0.60;;;0.60;;
8568;SDS011;4322;51.104;-4.162;2022-10-15T08:57:59;0.60;;;0.60;;
8568;SDS011;4322;51.104;-4.162;2022-10-15T09:00:34;0.60;;;0.60;;
8568;SDS011;4322;51.104;-4.162;2022-10-15T09:03:07;0.80;;;0.80;;
8568;SDS011;4322;51.104;-4.162;2022-10-15T09:05:47;0.80;;;0.80;;
8568;SDS011;4322;51.104;-4.162;2022-10-15T09:08:21;0.70;;;0.70;;
8568;SDS011;4322;51.104;-4.162;2022-10-15T09:10:56;0.80;;;0.80;;
8568;SDS011;4322;51.104;-4.162;2022-10-15T09:13:29;0.60;;;0.60;;
8568;SDS011;4322;51.104;-4.162;2022-10-15T09:16:00;0.80;;;0.80;;
8568;SDS011;4322;51.104;-4.162;2022-10-15T09:18:34;0.80;;;0.80;;
8568;SDS011;4322;51.104;-4.162;2022-10-15T09:21:05;0.60;;;0.60;;
8568;SDS011;4322;51.104;-4.162;2022-10-15T09:23:38;0.67;;;0.67;;
8568;SDS011;4322;51.104;-4.162;2022-10-15T09:26:17;0.80;;;0.80;;
8568;SDS011;4322;51.104;-4.162;2022-10-15T09:28:53;0.80;;;0.80;;
8568;SDS011;4322;51.104;-4.162;2022-10-15T09:31:28;1.03;;;1.03;;
8568;SDS011;4322;51.104;-4.162;2022-10-15T09:34:06;1.30;;;1.30;;
8568;SDS011;4322;51.104;-4.162;2022-10-15T09:36:42;1.30;;;1.30;;
8568;SDS011;4322;51.104;-4.162;2022-10-15T09:39:28;0.80;;;0.80;;
8568;SDS011;4322;51.104;-4.162;2022-10-15T09:42:33;0.80;;;0.80;;
8568;SDS011;4322;51.104;-4.162;2022-10-15T09:45:07;0.80;;;0.80;;
8568;SDS011;4322;51.104;-4.162;2022-10-15T09:47:38;0.80;;;0.80;;
8568;SDS011;4322;51.104;-4.162;2022-10-15T09:50:09;0.67;;;0.67;;
8568;SDS011;4322;51.104;-4.162;2022-10-15T09:52:44;0.60;;;0.60;;
8568;SDS011;4322;51.104;-4.162;2022-10-15T09:55:25;0.70;;;0.70;;
8568;SDS011;4322;51.104;-4.162;2022-10-15T09:58:02;0.80;;;0.80;;
8568;SDS011;4322;51.104;-4.162;2022-10-15T10:03:36;0.70;;;0.70;;
8568;SDS011;4322;51.104;-4.162;2022-10-15T10:06:05;0.70;;;0.70;;
8568;SDS011;4322;51.104;-4.162;2022-10-15T10:08:36;0.70;;;0.70;;
8568;SDS011;4322;51.104;-4.162;2022-10-15T10:11:08;0.80;;;0.80;;
8568;SDS011;4322;51.104;-4.162;2022-10-15T10:13:38;0.93;;;0.93;;
8568;SDS011;4322;51.104;-4.162;2022-10-15T10:16:11;0.90;;;0.90;;
8568;SDS011;4322;51.104;-4.162;2022-10-15T10:18:41;0.90;;;0.90;;
8568;SDS011;4322;51.104;-4.162;2022-10-15T10:21:20;1.00;;;1.00;;
8568;SDS011;4322;51.104;-4.162;2022-10-15T10:23:49;0.80;;;0.80;;
8568;SDS011;4322;51.104;-4.162;2022-10-15T10:26:18;0.80;;;0.80;;
8568;SDS011;4322;51.104;-4.162;2022-10-15T10:28:49;1.00;;;1.00;;
8568;SDS011;4322;51.104;-4.162;2022-10-15T10:31:30;1.00;;;1.00;;
8568;SDS011;4322;51.104;-4.162;2022-10-15T10:34:09;1.20;;;1.20;;
8568;SDS011;4322;51.104;-4.162;2022-10-15T10:36:42;1.17;;;1.17;;
8568;SDS011;4322;51.104;-4.162;2022-10-15T10:39:18;1.20;;;1.20;;
8568;SDS011;4322;51.104;-4.162;2022-10-15T10:41:54;1.33;;;1.33;;
8568;SDS011;4322;51.104;-4.162;2022-10-15T10:44:27;1.47;;;1.47;;
8568;SDS011;4322;51.104;-4.162;2022-10-15T10:47:07;1.20;;;1.20;;
8568;SDS011;4322;51.104;-4.162;2022-10-15T10:49:37;1.20;;;1.20;;
8568;SDS011;4322;51.104;-4.162;2022-10-15T10:52:17;1.13;;;1.13;;
8568;SDS011;4322;51.104;-4.162;2022-10-15T10:55:00;1.30;;;1.30;;
8568;SDS011;4322;51.104;-4.162;2022-10-15T10:57:41;1.30;;;1.30;;
8568;SDS011;4322;51.104;-4.162;2022-10-15T11:00:13;1.30;;;1.30;;
8568;SDS011;4322;51.104;-4.162;2022-10-15T11:02:43;1.40;;;1.40;;
8568;SDS011;4322;51.104;-4.162;2022-10-15T11:05:11;1.40;;;1.40;;
8568;SDS011;4322;51.104;-4.162;2022-10-15T11:07:44;1.40;;;1.40;;
8568;SDS011;4322;51.104;-4.162;2022-10-15T11:10:21;1.50;;;1.50;;
8568;SDS011;4322;51.104;-4.162;2022-10-15T11:13:00;1.23;;;1.23;;
8568;SDS011;4322;51.104;-4.162;2022-10-15T11:15:43;1.20;;;1.20;;
8568;SDS011;4322;51.104;-4.162;2022-10-15T11:18:20;1.30;;;1.30;;
8568;SDS011;4322;51.104;-4.162;2022-10-15T11:21:01;1.50;;;1.50;;
8568;SDS011;4322;51.104;-4.162;2022-10-15T11:23:40;1.40;;;1.40;;
8568;SDS011;4322;51.104;-4.162;2022-10-15T11:26:29;1.40;;;1.40;;
8568;SDS011;4322;51.104;-4.162;2022-10-15T11:29:28;1.20;;;1.20;;
8568;SDS011;4322;51.104;-4.162;2022-10-15T11:32:11;1.20;;;1.20;;
8568;SDS011;4322;51.104;-4.162;2022-10-15T11:34:57;1.30;;;1.30;;
8568;SDS011;4322;51.104;-4.162;2022-10-15T11:38:15;1.50;;;1.50;;
8568;SDS011;4322;51.104;-4.162;2022-10-15T11:40:52;1.33;;;1.33;;
8568;SDS011;4322;51.104;-4.162;2022-10-15T11:43:38;1.57;;;1.57;;
8568;SDS011;4322;51.104;-4.162;2022-10-15T11:46:15;1.50;;;1.50;;
8568;SDS011;4322;51.104;-4.162;2022-10-15T11:48:55;1.37;;;1.37;;
8568;SDS011;4322;51.104;-4.162;2022-10-15T11:51:40;1.40;;;1.40;;
8568;SDS011;4322;51.104;-4.162;2022-10-15T11:54:24;1.50;;;1.50;;
8568;SDS011;4322;51.104;-4.162;2022-10-15T11:56:57;1.40;;;1.40;;
8568;SDS011;4322;51.104;-4.162;2022-10-15T11:59:32;1.30;;;1.30;;
8568;SDS011;4322;51.104;-4.162;2022-10-15T12:02:12;1.70;;;1.70;;
8568;SDS011;4322;51.104;-4.162;2022-10-15T12:04:44;1.73;;;1.73;;
8568;SDS011;4322;51.104;-4.162;2022-10-15T12:07:17;1.70;;;1.70;;
8568;SDS011;4322;51.104;-4.162;2022-10-15T12:09:50;1.53;;;1.53;;
8568;SDS011;4322;51.104;-4.162;2022-10-15T12:12:27;1.80;;;1.80;;
8568;SDS011;4322;51.104;-4.162;2022-10-15T12:15:06;1.63;;;1.63;;
8568;SDS011;4322;51.104;-4.162;2022-10-15T12:17:49;1.70;;;1.70;;
8568;SDS011;4322;51.104;-4.162;2022-10-15T12:20:22;1.90;;;1.90;;
8568;SDS011;4322;51.104;-4.162;2022-10-15T12:22:53;1.50;;;1.50;;
8568;SDS011;4322;51.104;-4.162;2022-10-15T12:25:39;1.40;;;1.40;;
8568;SDS011;4322;51.104;-4.162;2022-10-15T12:28:13;1.40;;;1.40;;
8568;SDS011;4322;51.104;-4.162;2022-10-15T12:30:59;1.90;;;1.90;;
8568;SDS011;4322;51.104;-4.162;2022-10-15T12:33:32;1.60;;;1.60;;
8568;SDS011;4322;51.104;-4.162;2022-10-15T12:36:04;1.47;;;1.47;;
8568;SDS011;4322;51.104;-4.162;2022-10-15T12:38:41;1.50;;;1.50;;
8568;SDS011;4322;51.104;-4.162;2022-10-15T12:41:30;1.50;;;1.50;;
8568;SDS011;4322;51.104;-4.162;2022-10-15T12:44:05;1.60;;;1.60;;
8568;SDS011;4322;51.104;-4.162;2022-10-15T12:46:35;1.50;;;1.50;;
8568;SDS011;4322;51.104;-4.162;2022-10-15T12:55:19;1.57;;;1.57;;
8568;SDS011;4322;51.104;-4.162;2022-10-15T12:57:50;1.60;;;1.60;;
8568;SDS011;4322;51.104;-4.162;2022-10-15T13:00:29;1.50;;;1.50;;
8568;SDS011;4322;51.104;-4.162;2022-10-15T13:05:51;1.80;;;1.80;;
8568;SDS011;4322;51.104;-4.162;2022-10-15T13:08:22;1.50;;;1.50;;
8568;SDS011;4322;51.104;-4.162;2022-10-15T13:10:54;1.53;;;1.53;;
8568;SDS011;4322;51.104;-4.162;2022-10-15T13:13:24;1.70;;;1.70;;
8568;SDS011;4322;51.104;-4.162;2022-10-15T13:15:56;1.70;;;1.70;;
8568;SDS011;4322;51.104;-4.162;2022-10-15T13:18:25;1.57;;;1.57;;
8568;SDS011;4322;51.104;-4.162;2022-10-15T13:20:56;1.70;;;1.70;;
8568;SDS011;4322;51.104;-4.162;2022-10-15T13:23:25;1.40;;;1.40;;
8568;SDS011;4322;51.104;-4.162;2022-10-15T13:26:14;1.60;;;1.60;;
8568;SDS011;4322;51.104;-4.162;2022-10-15T13:28:45;1.60;;;1.60;;
8568;SDS011;4322;51.104;-4.162;2022-10-15T13:31:16;1.70;;;1.70;;
8568;SDS011;4322;51.104;-4.162;2022-10-15T13:33:56;1.90;;;1.90;;
8568;SDS011;4322;51.104;-4.162;2022-10-15T13:36:30;1.73;;;1.73;;
8568;SDS011;4322;51.104;-4.162;2022-10-15T13:39:02;1.63;;;1.63;;
8568;SDS011;4322;51.104;-4.162;2022-10-15T13:41:33;1.80;;;1.80;;
8568;SDS011;4322;51.104;-4.162;2022-10-15T13:44:03;2.00;;;2.00;;
8568;SDS011;4322;51.104;-4.162;2022-10-15T13:46:32;1.73;;;1.73;;
8568;SDS011;4322;51.104;-4.162;2022-10-15T13:49:09;1.90;;;1.90;;
8568;SDS011;4322;51.104;-4.162;2022-10-15T13:51:39;1.80;;;1.80;;
8568;SDS011;4322;51.104;-4.162;2022-10-15T13:54:09;1.60;;;1.60;;
8568;SDS011;4322;51.104;-4.162;2022-10-15T13:56:43;1.63;;;1.63;;
8568;SDS011;4322;51.104;-4.162;2022-10-15T13:59:17;1.80;;;1.80;;
8568;SDS011;4322;51.104;-4.162;2022-10-15T14:01:47;1.70;;;1.70;;
8568;SDS011;4322;51.104;-4.162;2022-10-15T14:04:18;1.50;;;1.50;;
8568;SDS011;4322;51.104;-4.162;2022-10-15T14:06:52;1.60;;;1.60;;
8568;SDS011;4322;51.104;-4.162;2022-10-15T14:09:24;1.73;;;1.73;;
8568;SDS011;4322;51.104;-4.162;2022-10-15T14:11:57;1.57;;;1.57;;
8568;SDS011;4322;51.104;-4.162;2022-10-15T14:14:30;1.80;;;1.80;;
8568;SDS011;4322;51.104;-4.162;2022-10-15T14:17:00;1.70;;;1.70;;
8568;SDS011;4322;51.104;-4.162;2022-10-15T14:19:30;1.80;;;1.80;;
8568;SDS011;4322;51.104;-4.162;2022-10-15T14:22:00;1.70;;;1.70;;
8568;SDS011;4322;51.104;-4.162;2022-10-15T14:24:29;1.50;;;1.50;;
8568;SDS011;4322;51.104;-4.162;2022-10-15T14:27:05;1.67;;;1.67;;
8568;SDS011;4322;51.104;-4.162;2022-10-15T14:29:36;1.87;;;1.87;;
8568;SDS011;4322;51.104;-4.162;2022-10-15T14:32:17;1.70;;;1.70;;
8568;SDS011;4322;51.104;-4.162;2022-10-15T14:34:47;1.90;;;1.90;;
8568;SDS011;4322;51.104;-4.162;2022-10-15T14:37:29;1.70;;;1.70;;
8568;SDS011;4322;51.104;-4.162;2022-10-15T14:40:18;1.70;;;1.70;;
8568;SDS011;4322;51.104;-4.162;2022-10-15T14:42:49;1.70;;;1.70;;
8568;SDS011;4322;51.104;-4.162;2022-10-15T14:45:29;1.90;;;1.90;;
8568;SDS011;4322;51.104;-4.162;2022-10-15T14:48:01;1.90;;;1.90;;
8568;SDS011;4322;51.104;-4.162;2022-10-15T14:50:39;1.60;;;1.60;;
8568;SDS011;4322;51.104;-4.162;2022-10-15T14:53:09;1.70;;;1.70;;
8568;SDS011;4322;51.104;-4.162;2022-10-15T14:55:46;1.80;;;1.80;;
8568;SDS011;4322;51.104;-4.162;2022-10-15T14:58:19;1.60;;;1.60;;
8568;SDS011;4322;51.104;-4.162;2022-10-15T15:00:53;1.83;;;1.83;;
8568;SDS011;4322;51.104;-4.162;2022-10-15T15:03:25;1.90;;;1.90;;
8568;SDS011;4322;51.104;-4.162;2022-10-15T15:05:54;1.63;;;1.63;;
8568;SDS011;4322;51.104;-4.162;2022-10-15T15:08:24;1.70;;;1.70;;
8568;SDS011;4322;51.104;-4.162;2022-10-15T15:10:53;1.60;;;1.60;;
8568;SDS011;4322;51.104;-4.162;2022-10-15T15:13:24;1.60;;;1.60;;
8568;SDS011;4322;51.104;-4.162;2022-10-15T15:15:53;1.80;;;1.80;;
8568;SDS011;4322;51.104;-4.162;2022-10-15T15:18:21;1.80;;;1.80;;
8568;SDS011;4322;51.104;-4.162;2022-10-15T15:20:49;1.67;;;1.67;;
8568;SDS011;4322;51.104;-4.162;2022-10-15T15:23:18;1.80;;;1.80;;
8568;SDS011;4322;51.104;-4.162;2022-10-15T15:25:48;1.67;;;1.67;;
8568;SDS011;4322;51.104;-4.162;2022-10-15T15:28:18;1.60;;;1.60;;
8568;SDS011;4322;51.104;-4.162;2022-10-15T15:30:56;1.47;;;1.47;;
8568;SDS011;4322;51.104;-4.162;2022-10-15T15:33:25;1.60;;;1.60;;
8568;SDS011;4322;51.104;-4.162;2022-10-15T15:35:54;1.80;;;1.80;;
8568;SDS011;4322;51.104;-4.162;2022-10-15T15:38:26;1.60;;;1.60;;